Time;durP1;ratioP1;P1;durP2;ratioP2;P2;SDS_P1;SDS_P2;PMS_P1;PMS_P2;Temp;Humidity;BMP_temperature;BMP_pressure;BME280_temperature;BME280_humidity;BME280_pressure;Samples;Min_cycle;Max_cycle;Signal;HPM_P1;HPM_P2
2022/05/22 00:01:29;;;;;;;12.55;3.70;;;15.30;68.10;;;;;;2239633;60;21080;-77
2022/05/22 00:03:56;;;;;;;10.45;3.75;;;15.30;68.10;;;;;;2239167;60;21068;-78
2022/05/22 00:06:23;;;;;;;9.35;3.15;;;15.30;68.10;;;;;;2237883;60;21107;-78
2022/05/22 00:08:50;;;;;;;14.55;3.60;;;15.30;68.20;;;;;;2239828;60;21646;-78
2022/05/22 00:11:18;;;;;;;13.00;3.53;;;15.30;68.20;;;;;;2305999;56;21124;-77
2022/05/22 00:13:45;;;;;;;12.93;2.42;;;15.30;68.10;;;;;;2238643;60;21151;-77
2022/05/22 00:18:57;;;;;;;15.63;3.90;;;15.20;68.00;;;;;;2239789;56;21050;-76
2022/05/22 00:21:25;;;;;;;7.03;2.78;;;15.10;67.90;;;;;;2239846;60;21242;-78
2022/05/22 00:23:52;;;;;;;11.45;3.17;;;15.10;68.10;;;;;;2238877;60;21076;-77
2022/05/22 00:26:20;;;;;;;10.95;3.58;;;15.10;68.10;;;;;;2239468;60;21168;-78
2022/05/22 00:28:47;;;;;;;15.27;3.37;;;15.10;68.20;;;;;;2239234;60;21164;-77
2022/05/22 00:31:14;;;;;;;10.68;3.00;;;15.10;68.20;;;;;;2239569;60;21087;-77
2022/05/22 00:33:42;;;;;;;6.97;2.75;;;15.10;68.10;;;;;;2239112;60;21091;-77
2022/05/22 00:36:09;;;;;;;10.60;3.45;;;15.10;68.10;;;;;;2239518;60;21674;-77
2022/05/22 00:38:36;;;;;;;12.75;3.90;;;15.10;68.20;;;;;;2238937;60;21091;-77
2022/05/22 00:41:05;;;;;;;8.27;3.28;;;15.10;68.50;;;;;;2239650;60;21579;-76
2022/05/22 00:43:34;;;;;;;9.40;3.62;;;15.00;68.40;;;;;;2239155;60;21072;-77
2022/05/22 00:46:07;;;;;;;6.35;3.00;;;15.10;68.60;;;;;;2239583;60;21068;-78
2022/05/22 00:48:35;;;;;;;12.90;3.37;;;15.10;68.60;;;;;;2240239;60;21056;-77
2022/05/22 00:51:07;;;;;;;9.45;3.30;;;15.10;68.60;;;;;;2239888;60;21123;-77
2022/05/22 00:53:40;;;;;;;12.30;3.97;;;15.10;68.70;;;;;;2240248;60;21048;-77
2022/05/22 00:56:12;;;;;;;12.37;3.30;;;15.10;68.70;;;;;;2238767;60;21629;-78
2022/05/22 00:58:40;;;;;;;7.20;2.95;;;15.10;68.70;;;;;;2240272;60;21127;-77
2022/05/22 01:01:07;;;;;;;8.05;2.85;;;15.20;68.70;;;;;;2240233;60;21064;-77
2022/05/22 01:03:36;;;;;;;12.43;3.22;;;15.20;68.80;;;;;;2239504;60;21092;-75
2022/05/22 01:06:06;;;;;;;10.10;3.37;;;15.10;68.80;;;;;;2238964;60;21140;-76
2022/05/22 01:08:35;;;;;;;8.63;3.47;;;15.10;68.70;;;;;;2239730;60;21080;-75
2022/05/22 01:11:06;;;;;;;15.75;3.53;;;15.10;68.60;;;;;;2239632;60;21307;-77
2022/05/22 01:13:37;;;;;;;11.82;3.47;;;15.10;68.40;;;;;;2239160;60;21136;-77
2022/05/22 01:16:05;;;;;;;13.62;3.30;;;15.10;68.40;;;;;;2239351;60;21072;-77
2022/05/22 01:18:42;;;;;;;12.88;3.65;;;15.10;69.00;;;;;;2240477;60;21068;-77
2022/05/22 01:21:13;;;;;;;10.43;4.53;;;15.10;68.30;;;;;;2239551;60;21080;-77
2022/05/22 01:23:40;;;;;;;14.35;4.05;;;15.10;68.30;;;;;;2240003;60;21120;-77
2022/05/22 01:26:07;;;;;;;10.70;3.97;;;15.10;68.30;;;;;;2239599;60;21239;-77
2022/05/22 01:28:35;;;;;;;10.40;3.72;;;15.00;68.30;;;;;;2240142;60;21128;-77
2022/05/22 01:31:02;;;;;;;8.90;3.62;;;15.10;68.30;;;;;;2239492;60;21080;-77
2022/05/22 01:33:29;;;;;;;9.25;3.72;;;15.00;68.20;;;;;;2238250;60;21140;-77
2022/05/22 01:35:57;;;;;;;10.57;2.87;;;15.00;68.20;;;;;;2239827;60;21562;-78
2022/05/22 01:38:24;;;;;;;15.68;3.90;;;15.00;68.20;;;;;;2240081;60;21072;-77
2022/05/22 01:40:51;;;;;;;9.40;3.50;;;15.00;68.40;;;;;;2240229;60;21068;-78
2022/05/22 01:43:19;;;;;;;13.20;3.85;;;15.00;68.60;;;;;;2239140;60;21143;-78
2022/05/22 01:45:47;;;;;;;10.57;3.60;;;14.90;68.80;;;;;;2238563;60;21132;-77
2022/05/22 01:48:14;;;;;;;13.35;3.10;;;15.00;69.90;;;;;;2240420;60;21167;-75
2022/05/22 01:50:43;;;;;;;7.18;3.20;;;15.00;68.90;;;;;;2238110;60;21158;-78
2022/05/22 01:53:11;;;;;;;10.30;4.07;;;15.00;68.90;;;;;;2239615;60;21068;-77
2022/05/22 01:55:39;;;;;;;8.73;3.65;;;15.00;68.80;;;;;;2239405;60;21151;-77
2022/05/22 01:58:07;;;;;;;11.50;3.33;;;14.90;68.70;;;;;;2301699;56;21080;-77
2022/05/22 02:00:35;;;;;;;9.30;4.05;;;15.00;68.90;;;;;;2239164;60;21091;-77
2022/05/22 02:03:03;;;;;;;15.68;3.75;;;14.90;68.70;;;;;;2263857;56;21131;-76
2022/05/22 02:05:31;;;;;;;10.27;4.30;;;14.90;68.70;;;;;;2238032;60;21155;-77
2022/05/22 02:10:44;;;;;;;6.30;3.12;;;14.90;68.60;;;;;;2239998;56;21051;-76
2022/05/22 02:13:11;;;;;;;10.80;3.78;;;14.90;68.70;;;;;;2240115;60;21112;-77
2022/05/22 02:15:39;;;;;;;10.95;4.47;;;14.80;68.50;;;;;;2239360;60;21144;-77
2022/05/22 02:20:41;;;;;;;11.82;3.40;;;14.80;68.70;;;;;;2336535;57;27841;-78
2022/05/22 02:23:09;;;;;;;8.18;3.58;;;14.40;71.00;;;;;;2345959;57;21053;-78
2022/05/22 02:25:39;;;;;;;9.07;3.00;;;14.60;70.20;;;;;;2345137;57;21069;-77
2022/05/22 02:28:08;;;;;;;16.40;3.22;;;14.70;69.50;;;;;;2362121;56;21043;-77
2022/05/22 02:30:38;;;;;;;12.00;3.40;;;14.70;68.90;;;;;;2449511;52;21653;-78
2022/05/22 02:33:06;;;;;;;9.95;3.92;;;14.70;68.70;;;;;;2375373;56;21047;-77
2022/05/22 02:35:33;;;;;;;12.68;3.37;;;14.70;68.60;;;;;;2440459;52;21375;-77
2022/05/22 02:38:01;;;;;;;10.40;3.40;;;14.70;68.70;;;;;;2531006;52;21082;-77
2022/05/22 02:40:30;;;;;;;9.60;3.03;;;14.70;69.10;;;;;;2374851;56;21055;-76
2022/05/22 02:42:57;;;;;;;15.57;3.53;;;14.70;68.70;;;;;;2374432;56;21106;-77
2022/05/22 02:45:28;;;;;;;9.98;4.07;;;14.60;68.70;;;;;;2374390;56;21039;-76
2022/05/22 02:47:56;;;;;;;12.43;4.43;;;14.60;68.90;;;;;;2387397;52;21134;-77
2022/05/22 02:50:25;;;;;;;11.73;3.95;;;14.60;68.90;;;;;;2374851;56;21114;-76
2022/05/22 02:52:53;;;;;;;13.98;4.28;;;14.60;69.10;;;;;;2374908;56;21118;-77
2022/05/22 02:55:21;;;;;;;15.38;4.47;;;14.60;69.40;;;;;;2466025;52;21055;-77
2022/05/22 02:57:49;;;;;;;13.43;4.05;;;14.60;69.60;;;;;;2390255;52;21525;-76
2022/05/22 03:00:20;;;;;;;11.57;4.05;;;14.60;69.70;;;;;;2374845;56;21047;-76
2022/05/22 03:02:47;;;;;;;8.45;3.92;;;14.60;69.80;;;;;;2374055;56;21047;-76
2022/05/22 03:05:14;;;;;;;14.98;4.03;;;14.60;69.80;;;;;;2374303;56;21098;-77
2022/05/22 03:07:42;;;;;;;11.25;4.20;;;14.60;69.80;;;;;;2377311;52;21062;-77
2022/05/22 03:10:11;;;;;;;12.75;4.10;;;14.60;69.90;;;;;;2374343;56;21054;-77
2022/05/22 03:12:39;;;;;;;8.27;3.45;;;14.60;69.90;;;;;;2374087;56;21074;-77
2022/05/22 03:15:10;;;;;;;9.10;3.75;;;14.60;69.80;;;;;;2426428;52;21050;-77
2022/05/22 03:17:37;;;;;;;15.23;4.28;;;14.60;69.80;;;;;;2373642;56;21050;-77
2022/05/22 03:22:43;;;;;;;9.65;4.40;;;14.60;70.10;;;;;;2355676;57;22082;-75
2022/05/22 03:25:11;;;;;;;16.45;4.65;;;14.50;70.20;;;;;;2347090;57;21065;-77
2022/05/22 03:27:38;;;;;;;14.77;4.10;;;14.50;70.30;;;;;;2395886;53;21098;-77
2022/05/22 03:30:09;;;;;;;11.32;3.35;;;14.50;70.30;;;;;;2374166;56;21047;-76
2022/05/22 03:32:36;;;;;;;11.52;4.22;;;14.50;70.20;;;;;;2375138;52;21087;-77
2022/05/22 03:35:06;;;;;;;11.32;4.30;;;14.50;70.20;;;;;;2374507;56;21550;-77
2022/05/22 03:37:33;;;;;;;9.75;4.10;;;14.50;70.30;;;;;;2374578;56;21644;-77
2022/05/22 03:40:01;;;;;;;11.57;4.22;;;14.60;70.50;;;;;;2374186;56;21063;-76
2022/05/22 03:42:28;;;;;;;15.65;4.65;;;14.60;70.70;;;;;;2373387;56;21075;-75
2022/05/22 03:44:55;;;;;;;9.57;4.45;;;14.50;70.70;;;;;;2374343;56;21078;-77
2022/05/22 03:47:23;;;;;;;9.55;3.20;;;14.60;70.80;;;;;;2335456;54;21687;-75
2022/05/22 03:49:50;;;;;;;17.87;4.05;;;14.60;70.90;;;;;;2574230;54;21062;-75
2022/05/22 03:52:17;;;;;;;13.27;4.32;;;14.50;70.90;;;;;;2330354;57;21332;-75
2022/05/22 03:54:44;;;;;;;10.30;3.35;;;14.50;71.30;;;;;;2328987;57;21058;-75
2022/05/22 03:57:12;;;;;;;15.25;4.75;;;14.50;71.20;;;;;;2329803;57;21600;-75
2022/05/22 03:59:40;;;;;;;10.23;3.58;;;14.50;71.30;;;;;;2328112;57;21126;-75
2022/05/22 04:04:42;;;;;;;11.77;4.55;;;14.60;71.20;;;;;;2337421;57;38079;-75
2022/05/22 04:07:10;;;;;;;11.30;4.47;;;14.20;74.10;;;;;;2629303;52;21052;-75
2022/05/22 04:09:37;;;;;;;14.93;4.47;;;14.40;73.40;;;;;;2376050;56;21586;-76
2022/05/22 04:12:08;;;;;;;12.57;4.07;;;14.50;72.50;;;;;;2375317;56;21128;-75
2022/05/22 04:14:35;;;;;;;14.23;4.03;;;14.60;72.20;;;;;;2375478;56;21902;-75
2022/05/22 04:17:03;;;;;;;17.52;4.28;;;14.60;72.00;;;;;;2627319;52;21112;-75
2022/05/22 04:19:31;;;;;;;11.50;3.70;;;14.60;71.90;;;;;;2375068;56;21049;-75
2022/05/22 04:21:59;;;;;;;8.05;4.28;;;14.70;71.90;;;;;;2375468;56;21100;-75
2022/05/22 04:27:11;;;;;;;14.02;3.72;;;14.70;71.80;;;;;;2375200;56;21116;-76
2022/05/22 04:29:39;;;;;;;12.18;3.78;;;14.70;71.60;;;;;;2375966;56;21535;-76
2022/05/22 04:32:07;;;;;;;18.73;4.37;;;14.70;71.40;;;;;;2629220;52;21622;-76
2022/05/22 04:34:34;;;;;;;10.23;3.70;;;14.80;71.50;;;;;;2373836;56;21041;-76
2022/05/22 04:37:01;;;;;;;11.10;3.62;;;14.80;71.50;;;;;;2628819;51;21182;-75
2022/05/22 04:39:28;;;;;;;9.20;3.65;;;14.80;71.70;;;;;;2375560;56;21398;-75
2022/05/22 04:41:56;;;;;;;11.00;4.00;;;14.80;71.80;;;;;;2375415;56;21048;-75
2022/05/22 04:44:23;;;;;;;12.13;3.75;;;14.80;71.60;;;;;;2375516;56;21124;-75
2022/05/22 04:46:50;;;;;;;9.95;3.55;;;14.80;71.50;;;;;;2375174;56;21114;-75
2022/05/22 04:49:17;;;;;;;14.32;4.07;;;14.90;71.60;;;;;;2375776;56;21135;-75
2022/05/22 04:51:45;;;;;;;17.85;4.07;;;14.90;71.80;;;;;;2629933;52;21036;-75
2022/05/22 04:54:12;;;;;;;13.77;4.47;;;14.90;71.80;;;;;;2629457;51;21633;-75
2022/05/22 04:56:39;;;;;;;11.32;4.25;;;14.90;71.80;;;;;;2374432;56;21032;-75
2022/05/22 04:59:07;;;;;;;14.80;3.83;;;15.00;71.70;;;;;;2374945;56;21044;-75
2022/05/22 05:01:34;;;;;;;10.68;2.78;;;15.00;72.00;;;;;;2629664;52;21029;-75
2022/05/22 05:04:02;;;;;;;12.73;3.97;;;15.10;71.80;;;;;;2375485;56;21052;-76
2022/05/22 05:06:30;;;;;;;13.80;3.80;;;15.10;71.70;;;;;;2375080;56;21048;-76
2022/05/22 05:08:57;;;;;;;9.13;3.60;;;15.10;71.90;;;;;;2376131;56;21068;-76
2022/05/22 05:11:24;;;;;;;17.27;3.72;;;15.20;72.20;;;;;;2375822;56;21618;-75
2022/05/22 05:13:52;;;;;;;11.52;3.10;;;15.20;72.10;;;;;;2373556;56;21610;-76
2022/05/22 05:16:21;;;;;;;9.00;2.85;;;15.20;72.00;;;;;;2374476;56;21124;-75
2022/05/22 05:18:48;;;;;;;16.90;4.03;;;15.20;72.00;;;;;;2626341;51;21127;-75
2022/05/22 05:21:17;;;;;;;13.20;4.12;;;15.30;72.10;;;;;;2627451;52;21049;-76
2022/05/22 05:23:45;;;;;;;14.38;3.42;;;15.30;72.00;;;;;;2373449;56;21445;-76
2022/05/22 05:26:12;;;;;;;13.18;4.57;;;15.40;72.00;;;;;;2373844;56;21543;-76
2022/05/22 05:28:39;;;;;;;10.55;3.28;;;15.30;71.90;;;;;;2374532;56;21111;-76
2022/05/22 05:31:06;;;;;;;9.40;2.58;;;15.40;71.90;;;;;;2374120;56;21268;-75
2022/05/22 05:33:34;;;;;;;9.98;2.85;;;15.40;71.40;;;;;;2371817;56;21100;-75
2022/05/22 05:36:02;;;;;;;9.07;2.92;;;15.50;71.30;;;;;;2373816;56;21024;-75
2022/05/22 05:38:30;;;;;;;8.32;2.90;;;15.60;71.10;;;;;;2374468;56;21048;-76
2022/05/22 05:40:58;;;;;;;10.82;3.47;;;15.60;71.20;;;;;;2374840;56;21040;-76
2022/05/22 05:43:25;;;;;;;15.93;3.53;;;15.70;70.90;;;;;;2373067;56;21048;-75
2022/05/22 05:45:52;;;;;;;9.07;2.95;;;15.70;70.80;;;;;;2627912;52;21036;-75
2022/05/22 05:48:19;;;;;;;12.77;3.20;;;15.70;70.90;;;;;;2374401;56;21194;-75
2022/05/22 05:50:47;;;;;;;9.60;2.83;;;15.70;71.10;;;;;;2371786;56;21703;-75
2022/05/22 05:53:14;;;;;;;7.45;2.67;;;15.70;71.10;;;;;;2374717;56;21048;-76
2022/05/22 05:55:41;;;;;;;15.65;3.08;;;15.80;70.90;;;;;;2373326;56;21044;-75
2022/05/22 05:58:08;;;;;;;13.05;3.25;;;15.80;70.80;;;;;;2372817;56;21048;-77
2022/05/22 06:00:36;;;;;;;12.68;3.17;;;15.90;70.10;;;;;;2374530;56;21179;-76
2022/05/22 06:03:03;;;;;;;12.20;3.12;;;15.90;70.00;;;;;;2374931;56;21072;-76
2022/05/22 06:05:31;;;;;;;12.60;3.42;;;16.00;70.00;;;;;;2374023;56;21547;-75
2022/05/22 06:07:58;;;;;;;13.13;3.30;;;16.10;70.20;;;;;;2625649;52;21336;-76
2022/05/22 06:10:25;;;;;;;10.70;3.17;;;16.10;69.80;;;;;;2372895;56;21555;-75
2022/05/22 06:12:52;;;;;;;7.72;2.85;;;16.10;69.80;;;;;;2374162;56;21095;-75
2022/05/22 06:15:20;;;;;;;15.60;2.95;;;16.20;69.90;;;;;;2373754;56;21044;-75
2022/05/22 06:17:47;;;;;;;10.65;2.33;;;16.30;69.90;;;;;;2627992;52;21638;-75
2022/05/22 06:20:18;;;;;;;10.60;3.22;;;16.30;69.80;;;;;;2374876;56;21203;-75
2022/05/22 06:22:46;;;;;;;10.80;3.78;;;16.40;69.70;;;;;;2374936;56;21044;-75
2022/05/22 06:25:17;;;;;;;12.10;2.30;;;16.40;69.00;;;;;;2373791;56;21179;-76
2022/05/22 06:27:44;;;;;;;15.80;3.75;;;16.40;68.50;;;;;;2373904;56;21112;-75
2022/05/22 06:30:15;;;;;;;10.18;3.35;;;16.50;68.20;;;;;;2373535;56;21052;-76
2022/05/22 06:32:43;;;;;;;7.80;2.25;;;16.50;67.90;;;;;;2373980;56;21642;-76
2022/05/22 06:35:12;;;;;;;13.10;2.92;;;16.50;69.00;;;;;;2372552;56;21334;-77
2022/05/22 06:37:39;;;;;;;9.27;2.17;;;16.60;68.20;;;;;;2373931;56;21095;-76
2022/05/22 06:40:09;;;;;;;13.65;2.83;;;16.60;68.00;;;;;;2374131;56;21059;-76
2022/05/22 06:42:39;;;;;;;7.93;2.28;;;16.70;67.90;;;;;;2374548;56;21068;-76
2022/05/22 06:45:11;;;;;;;11.00;2.60;;;16.70;67.30;;;;;;2626980;52;21064;-76
2022/05/22 06:47:39;;;;;;;8.30;2.60;;;16.80;67.40;;;;;;2371504;56;21139;-76
2022/05/22 06:50:11;;;;;;;8.45;2.60;;;16.80;67.40;;;;;;2372816;56;21148;-75
2022/05/22 06:52:39;;;;;;;10.10;3.10;;;16.90;67.50;;;;;;2627308;52;21096;-76
2022/05/22 06:55:09;;;;;;;10.35;2.20;;;16.90;67.10;;;;;;2374469;56;21167;-76
2022/05/22 06:57:38;;;;;;;12.13;2.22;;;16.90;66.90;;;;;;2374305;56;21048;-76
2022/05/22 07:00:10;;;;;;;11.70;2.25;;;16.90;66.80;;;;;;2374937;56;21135;-75
2022/05/22 07:02:39;;;;;;;9.13;2.33;;;17.00;66.70;;;;;;2373901;56;21055;-76
2022/05/22 07:05:08;;;;;;;10.43;2.47;;;17.10;66.50;;;;;;2374435;56;21473;-75
2022/05/22 07:07:36;;;;;;;9.38;2.12;;;17.10;65.60;;;;;;2374782;56;21120;-76
2022/05/22 07:10:04;;;;;;;10.02;2.47;;;17.20;65.70;;;;;;2624967;52;21064;-76
2022/05/22 07:12:32;;;;;;;10.85;2.72;;;17.20;64.80;;;;;;2628228;52;21116;-76
2022/05/22 07:14:59;;;;;;;12.75;2.40;;;17.30;65.00;;;;;;2627871;52;21041;-76
2022/05/22 07:17:26;;;;;;;9.13;2.65;;;17.30;64.20;;;;;;2374959;56;21377;-75
2022/05/22 07:19:55;;;;;;;7.65;2.10;;;17.30;64.20;;;;;;2374762;56;21068;-76
2022/05/22 07:22:22;;;;;;;7.05;2.10;;;17.30;63.50;;;;;;2374756;56;21060;-75
2022/05/22 07:24:50;;;;;;;6.10;1.80;;;17.30;63.30;;;;;;2373610;56;21115;-76
2022/05/22 07:27:18;;;;;;;9.55;2.25;;;17.20;63.00;;;;;;2372494;56;21053;-75
2022/05/22 07:29:45;;;;;;;6.87;2.83;;;17.20;63.00;;;;;;2374545;56;21398;-75
2022/05/22 07:32:13;;;;;;;8.48;2.22;;;17.20;64.10;;;;;;2367147;56;21486;-74
2022/05/22 07:37:16;;;;;;;7.22;2.00;;;17.20;63.50;;;;;;2349122;57;22104;-75
2022/05/22 07:39:43;;;;;;;9.38;2.05;;;17.20;63.60;;;;;;2346677;57;21627;-76
2022/05/22 07:42:11;;;;;;;10.60;2.25;;;17.20;63.70;;;;;;2346977;57;21041;-75
2022/05/22 07:44:40;;;;;;;9.27;2.60;;;17.20;63.40;;;;;;2346733;57;21066;-75
2022/05/22 07:47:07;;;;;;;8.40;2.12;;;17.20;63.00;;;;;;2594297;52;21133;-74
2022/05/22 07:52:21;;;;;;;7.95;1.98;;;17.20;63.10;;;;;;2346156;57;21089;-76
2022/05/22 07:54:48;;;;;;;7.80;3.10;;;17.20;63.00;;;;;;2346819;57;21033;-76
2022/05/22 07:57:16;;;;;;;5.95;2.00;;;17.10;63.40;;;;;;2343658;57;21097;-75
2022/05/22 07:59:43;;;;;;;5.40;1.80;;;17.10;63.40;;;;;;2345989;57;21061;-76
2022/05/22 08:02:12;;;;;;;11.20;2.55;;;17.10;63.70;;;;;;2346669;57;21038;-75
2022/05/22 08:04:40;;;;;;;9.35;2.03;;;17.10;63.60;;;;;;2346843;57;21581;-76
2022/05/22 08:07:07;;;;;;;8.77;1.92;;;17.10;63.60;;;;;;2346248;57;21139;-76
2022/05/22 08:09:35;;;;;;;12.90;1.83;;;17.00;63.60;;;;;;2594655;53;21180;-76
2022/05/22 08:12:03;;;;;;;6.10;1.90;;;17.10;63.30;;;;;;2346462;57;21612;-76
2022/05/22 08:14:30;;;;;;;7.05;2.00;;;17.10;63.10;;;;;;2345419;57;21049;-77
2022/05/22 08:16:58;;;;;;;3.50;1.50;;;17.20;63.10;;;;;;2344105;57;21041;-76
2022/05/22 08:19:25;;;;;;;5.87;1.55;;;17.20;61.90;;;;;;2346731;57;21164;-77
2022/05/22 08:21:53;;;;;;;7.65;1.80;;;17.20;61.90;;;;;;2343883;57;21062;-76
2022/05/22 08:24:20;;;;;;;8.82;2.03;;;17.20;61.40;;;;;;2345675;57;21045;-76
2022/05/22 08:26:48;;;;;;;7.35;1.90;;;17.10;61.90;;;;;;2346138;57;21191;-76
2022/05/22 08:29:15;;;;;;;3.87;1.45;;;17.10;62.30;;;;;;2347430;57;21066;-76
2022/05/22 08:31:42;;;;;;;6.93;1.98;;;17.20;62.50;;;;;;2346256;57;21551;-76
2022/05/22 08:34:09;;;;;;;3.60;1.55;;;17.30;62.10;;;;;;2344994;57;21666;-76
2022/05/22 08:36:37;;;;;;;5.10;1.58;;;17.40;61.70;;;;;;2346675;57;21643;-76
2022/05/22 08:39:05;;;;;;;13.10;2.12;;;17.50;61.20;;;;;;2594292;52;21528;-76
2022/05/22 08:41:37;;;;;;;6.97;1.67;;;17.70;61.10;;;;;;2344918;57;21033;-76
2022/05/22 08:44:11;;;;;;;6.32;1.77;;;17.70;60.90;;;;;;2345582;57;21505;-76
2022/05/22 08:46:57;;;;;;;6.40;2.62;;;17.80;60.20;;;;;;2346777;57;21093;-76
2022/05/22 08:49:29;;;;;;;3.65;1.30;;;17.80;60.10;;;;;;2346168;57;21113;-76
2022/05/22 08:52:02;;;;;;;5.03;1.83;;;17.90;60.00;;;;;;2346288;57;21054;-76
2022/05/22 08:54:34;;;;;;;4.47;1.60;;;17.90;59.80;;;;;;2346822;57;21120;-76
2022/05/22 08:59:55;;;;;;;;;;;18.00;58.70;;;;;;2347131;57;21352;-76
2022/05/22 09:02:32;;;;;;;7.35;1.55;;;18.00;58.60;;;;;;2342943;57;20083;-76
2022/05/22 09:05:05;;;;;;;4.75;1.25;;;17.90;57.30;;;;;;2344885;57;21046;-76
2022/05/22 09:07:44;;;;;;;6.75;1.80;;;17.90;57.50;;;;;;2346001;57;21119;-76
2022/05/22 09:10:16;;;;;;;4.00;1.67;;;18.00;58.10;;;;;;2593192;53;21084;-76
2022/05/22 09:12:58;;;;;;;4.28;1.40;;;18.10;57.80;;;;;;2345008;57;21105;-76
2022/05/22 09:15:35;;;;;;;7.43;1.53;;;18.20;57.90;;;;;;2346277;57;21101;-75
2022/05/22 09:18:10;;;;;;;4.43;1.23;;;18.20;58.40;;;;;;2345569;57;21046;-77
2022/05/22 09:20:45;;;;;;;5.12;1.65;;;18.20;58.50;;;;;;2343050;57;21116;-75
2022/05/22 09:23:26;;;;;;;5.90;1.58;;;18.30;58.60;;;;;;2346008;57;21054;-76
2022/05/22 09:26:01;;;;;;;6.25;1.37;;;18.30;58.20;;;;;;2344489;57;21051;-75
2022/05/22 09:28:38;;;;;;;3.12;1.48;;;18.40;58.20;;;;;;2346178;57;21045;-76
2022/05/22 09:31:15;;;;;;;7.60;1.60;;;18.40;58.20;;;;;;2346327;57;21192;-76
2022/05/22 09:33:52;;;;;;;6.12;1.65;;;18.40;57.20;;;;;;2346841;57;21026;-75
2022/05/22 09:36:27;;;;;;;9.70;1.48;;;18.40;57.40;;;;;;2343407;57;21030;-76
2022/05/22 09:39:07;;;;;;;5.43;1.60;;;18.40;57.20;;;;;;2346669;57;21022;-76
2022/05/22 09:41:48;;;;;;;6.78;1.37;;;18.50;57.70;;;;;;2346785;57;21097;-76
2022/05/22 09:44:33;;;;;;;5.10;1.20;;;18.50;57.50;;;;;;2346330;57;21042;-76
2022/05/22 09:47:25;;;;;;;4.57;1.62;;;18.50;57.50;;;;;;2430392;53;21583;-75
2022/05/22 09:50:12;;;;;;;4.32;1.30;;;18.60;57.10;;;;;;2347619;57;21059;-75
2022/05/22 09:52:50;;;;;;;5.15;1.17;;;18.60;56.50;;;;;;2408694;53;21051;-75
2022/05/22 09:55:27;;;;;;;2.92;1.27;;;18.70;56.00;;;;;;2347500;57;21066;-75
2022/05/22 09:58:10;;;;;;;6.05;1.50;;;18.70;56.20;;;;;;2389352;53;21055;-75
2022/05/22 10:00:44;;;;;;;5.80;1.10;;;18.80;56.50;;;;;;2346959;57;21055;-75
2022/05/22 10:03:18;;;;;;;2.70;1.20;;;18.90;56.70;;;;;;2345029;57;21035;-75
2022/05/22 10:05:50;;;;;;;;;;;18.90;56.40;;;;;;2350891;57;21067;-75
2022/05/22 10:08:30;;;;;;;5.53;1.40;;;18.90;56.30;;;;;;2347890;57;20074;-74
2022/05/22 10:11:13;;;;;;;7.15;1.62;;;19.00;55.50;;;;;;2422591;53;21106;-75
2022/05/22 10:14:08;;;;;;;5.25;2.35;;;19.00;55.00;;;;;;2346808;57;21051;-74
2022/05/22 10:16:51;;;;;;;4.20;1.10;;;19.10;54.30;;;;;;2345153;57;21058;-75
2022/05/22 10:19:34;;;;;;;2.97;1.17;;;19.10;55.00;;;;;;2366387;53;21126;-76
2022/05/22 10:22:13;;;;;;;3.87;1.30;;;19.20;54.20;;;;;;2347519;57;21043;-75
2022/05/22 10:24:55;;;;;;;2.25;1.08;;;19.30;53.30;;;;;;2347397;57;21182;-75
2022/05/22 10:27:40;;;;;;;3.08;1.30;;;19.30;51.60;;;;;;2347324;57;21137;-75
2022/05/22 10:30:13;;;;;;;4.30;1.08;;;19.30;51.60;;;;;;2347016;57;21114;-75
2022/05/22 10:32:46;;;;;;;2.70;1.05;;;19.30;51.50;;;;;;2347269;57;21062;-75
2022/05/22 10:37:55;;;;;;;5.20;1.30;;;19.30;51.00;;;;;;2319991;57;27927;-75
2022/05/22 10:40:25;;;;;;;5.50;1.65;;;19.40;52.10;;;;;;2342786;57;22385;-76
2022/05/22 10:42:54;;;;;;;5.22;1.58;;;19.50;52.50;;;;;;2343667;57;21058;-76
2022/05/22 10:45:26;;;;;;;2.20;1.10;;;19.50;52.60;;;;;;2341021;57;21060;-76
2022/05/22 10:48:05;;;;;;;5.68;1.23;;;19.60;52.00;;;;;;2342982;57;21050;-76
2022/05/22 10:50:32;;;;;;;5.57;1.33;;;19.60;52.70;;;;;;2341653;57;21120;-76
2022/05/22 10:52:59;;;;;;;2.95;1.12;;;19.70;52.80;;;;;;2344215;57;21116;-75
2022/05/22 10:55:33;;;;;;;5.75;1.65;;;19.80;52.60;;;;;;2382260;53;21044;-76
2022/05/22 10:58:04;;;;;;;4.18;1.25;;;19.90;51.40;;;;;;2450464;53;21093;-76
2022/05/22 11:00:32;;;;;;;3.65;1.10;;;19.90;51.30;;;;;;2344699;57;21054;-76
2022/05/22 11:03:11;;;;;;;3.47;1.25;;;20.00;50.50;;;;;;2379104;52;21049;-76
2022/05/22 11:05:39;;;;;;;3.97;0.95;;;20.10;50.40;;;;;;2344511;57;22179;-75
2022/05/22 11:08:07;;;;;;;3.60;1.17;;;20.10;50.10;;;;;;2466895;52;21093;-76
2022/05/22 11:10:37;;;;;;;4.40;1.05;;;20.20;49.00;;;;;;2358664;53;21761;-76
2022/05/22 11:13:07;;;;;;;4.47;1.25;;;20.20;48.90;;;;;;2345981;57;21142;-76
2022/05/22 11:15:37;;;;;;;5.72;1.50;;;20.20;49.10;;;;;;2345295;57;21104;-76
2022/05/22 11:18:11;;;;;;;4.40;1.27;;;20.10;48.70;;;;;;2344242;57;21093;-75
2022/05/22 11:20:40;;;;;;;;;;;20.10;48.70;;;;;;2380298;53;21033;-76
2022/05/22 11:23:23;;;;;;;2.37;0.98;;;20.10;49.80;;;;;;2481511;53;20130;-76
2022/05/22 11:25:59;;;;;;;4.45;1.25;;;20.10;49.20;;;;;;2341173;57;21124;-76
2022/05/22 11:28:47;;;;;;;5.53;1.25;;;20.00;49.90;;;;;;2397056;53;21544;-76
2022/05/22 11:31:31;;;;;;;3.87;1.50;;;20.10;50.50;;;;;;2341391;57;21061;-75
2022/05/22 11:36:52;;;;;;;2.62;1.48;;;20.10;51.20;;;;;;2345006;57;22067;-77
2022/05/22 11:39:42;;;;;;;3.53;1.40;;;20.10;49.30;;;;;;2343009;57;21574;-76
2022/05/22 11:42:18;;;;;;;3.55;1.10;;;20.10;49.90;;;;;;2342919;57;21676;-77
2022/05/22 11:45:09;;;;;;;5.12;1.00;;;20.10;49.30;;;;;;2344140;54;21056;-76
2022/05/22 11:47:56;;;;;;;3.25;0.85;;;20.10;49.00;;;;;;2347175;57;21041;-78
2022/05/22 11:50:32;;;;;;;7.28;0.93;;;20.30;49.20;;;;;;2345860;57;21689;-78
2022/05/22 11:56:00;;;;;;;1.77;0.80;;;20.60;48.80;;;;;;2324314;57;22096;-79
2022/05/22 11:58:35;;;;;;;3.17;1.17;;;20.70;47.90;;;;;;2339303;57;21071;-78
2022/05/22 12:01:14;;;;;;;1.92;0.90;;;20.70;47.70;;;;;;2343423;57;21526;-78
2022/05/22 12:04:01;;;;;;;7.87;1.30;;;20.70;48.00;;;;;;2343134;57;21071;-78
2022/05/22 12:06:53;;;;;;;4.30;0.80;;;20.70;48.40;;;;;;2343559;57;21094;-76
2022/05/22 12:09:34;;;;;;;2.78;1.00;;;20.80;49.10;;;;;;2342159;57;21059;-77
2022/05/22 12:12:08;;;;;;;2.47;0.80;;;20.80;48.10;;;;;;2341125;57;21079;-77
2022/05/22 12:14:51;;;;;;;3.33;1.30;;;20.90;48.60;;;;;;2338692;57;21074;-77
2022/05/22 12:17:22;;;;;;;5.53;1.15;;;21.10;47.20;;;;;;2353930;53;21060;-76
2022/05/22 12:19:57;;;;;;;2.25;0.90;;;21.10;47.20;;;;;;2408932;53;21063;-76
2022/05/22 12:23:07;;;;;;;4.00;0.95;;;21.00;47.90;;;;;;2345977;57;21075;-76
2022/05/22 12:25:38;;;;;;;4.72;1.12;;;21.00;48.20;;;;;;2345756;54;21205;-76
2022/05/22 12:28:23;;;;;;;1.80;1.08;;;20.90;47.10;;;;;;2345759;57;21058;-75
2022/05/22 12:30:52;;;;;;;1.90;0.85;;;20.80;46.70;;;;;;2345364;57;21055;-75
2022/05/22 12:33:19;;;;;;;1.75;1.10;;;20.70;46.30;;;;;;2344034;57;21044;-75
2022/05/22 12:35:46;;;;;;;6.80;1.27;;;20.70;46.60;;;;;;2344768;57;21542;-76
2022/05/22 12:38:15;;;;;;;2.78;1.10;;;20.80;46.80;;;;;;2434896;53;21117;-76
2022/05/22 12:40:50;;;;;;;4.18;1.15;;;20.90;46.50;;;;;;2345022;57;21134;-76
2022/05/22 12:43:20;;;;;;;3.03;0.93;;;21.10;46.40;;;;;;2341766;57;21079;-76
2022/05/22 12:45:54;;;;;;;3.97;1.10;;;21.30;46.90;;;;;;2345623;57;21114;-77
2022/05/22 12:48:36;;;;;;;4.60;1.52;;;21.40;45.30;;;;;;2345970;57;21637;-76
2022/05/22 12:51:18;;;;;;;3.50;0.93;;;21.40;46.60;;;;;;2405660;53;21051;-76
2022/05/22 12:53:47;;;;;;;4.25;1.10;;;21.40;46.40;;;;;;2345889;57;21064;-77
2022/05/22 12:56:37;;;;;;;3.50;1.25;;;21.40;46.10;;;;;;2346062;57;21063;-76
2022/05/22 12:59:16;;;;;;;4.00;1.00;;;21.30;46.20;;;;;;2344190;57;21043;-77
2022/05/22 13:01:45;;;;;;;2.78;0.85;;;21.30;45.80;;;;;;2346767;55;21138;-77
2022/05/22 13:04:32;;;;;;;3.75;1.27;;;21.30;45.50;;;;;;2345972;57;21158;-76
2022/05/22 13:07:03;;;;;;;4.30;0.98;;;21.30;44.50;;;;;;2345537;57;21150;-76
2022/05/22 13:09:41;;;;;;;3.58;1.10;;;21.30;44.90;;;;;;2345725;57;21126;-77
2022/05/22 13:12:24;;;;;;;5.50;1.50;;;21.30;45.10;;;;;;2345826;57;21111;-77
2022/05/22 13:14:56;;;;;;;6.40;1.73;;;21.10;46.40;;;;;;2379505;53;21150;-77
2022/05/22 13:17:37;;;;;;;3.25;0.90;;;21.00;47.20;;;;;;2343425;57;21136;-76
2022/05/22 13:20:07;;;;;;;2.45;1.10;;;20.80;47.30;;;;;;2344995;57;21067;-76
2022/05/22 13:22:37;;;;;;;3.92;1.37;;;20.70;47.70;;;;;;2345097;57;21063;-77
2022/05/22 13:25:24;;;;;;;5.05;0.98;;;20.60;48.10;;;;;;2345195;57;21138;-76
2022/05/22 13:27:51;;;;;;;4.78;1.42;;;20.40;48.80;;;;;;2344802;57;21048;-76
2022/05/22 13:30:24;;;;;;;3.28;0.98;;;20.40;49.20;;;;;;2386432;53;21059;-77
2022/05/22 13:32:55;;;;;;;5.97;1.65;;;20.40;48.90;;;;;;2343362;57;21063;-76
2022/05/22 13:35:25;;;;;;;2.10;0.90;;;20.40;48.80;;;;;;2344684;57;21202;-77